DVO weather

Francisco Bangoy International Airport
Davao City, Davao Province, Philippines

Public forecast

Using degrees Celsius for public forecast. Weather courtesy of forecast.io.

Current aviation weather report (METAR) for Francisco Bangoy International Airport

Retrieved 2019/10/16 18:00 UTC (3 minutes ago):

RPMD 161800Z 31003KT 9999 SCT016 SCT290 26/25 Q1009 RMK A2980

Aviation forecast (TAF) for Francisco Bangoy International Airport

Retrieved 2019/10/16 18:00 UTC (3 minutes ago):

TAF RPMD 161700Z 1618/1718 18008KT 9999 FEW016 BKN290 TEMPO 1712/1718 SCT016 SCT090 BKN290